sensor_id;sensor_type;location;lat;lon;timestamp;P1;durP1;ratioP1;P2;durP2;ratioP2
65461;SDS011;53236;43.666;18.444;2023-07-16T00:01:17;15.50;;;11.03;;
65461;SDS011;53236;43.666;18.444;2023-07-16T00:03:43;15.73;;;11.37;;
65461;SDS011;53236;43.666;18.444;2023-07-16T00:06:09;14.30;;;11.43;;
65461;SDS011;53236;43.666;18.444;2023-07-16T00:08:34;13.90;;;10.67;;
65461;SDS011;53236;43.666;18.444;2023-07-16T00:11:00;13.37;;;10.60;;
65461;SDS011;53236;43.666;18.444;2023-07-16T00:13:28;14.47;;;11.13;;
65461;SDS011;53236;43.666;18.444;2023-07-16T00:15:53;14.67;;;10.50;;
65461;SDS011;53236;43.666;18.444;2023-07-16T00:18:19;14.73;;;10.67;;
65461;SDS011;53236;43.666;18.444;2023-07-16T00:20:45;15.03;;;10.30;;
65461;SDS011;53236;43.666;18.444;2023-07-16T00:23:11;15.10;;;10.67;;
65461;SDS011;53236;43.666;18.444;2023-07-16T00:25:37;14.23;;;10.27;;
65461;SDS011;53236;43.666;18.444;2023-07-16T00:28:02;14.43;;;10.80;;
65461;SDS011;53236;43.666;18.444;2023-07-16T00:30:28;16.77;;;10.87;;
65461;SDS011;53236;43.666;18.444;2023-07-16T00:32:54;15.17;;;11.00;;
65461;SDS011;53236;43.666;18.444;2023-07-16T00:35:20;15.40;;;10.63;;
65461;SDS011;53236;43.666;18.444;2023-07-16T00:37:45;16.30;;;11.53;;
65461;SDS011;53236;43.666;18.444;2023-07-16T00:40:11;18.20;;;10.83;;
65461;SDS011;53236;43.666;18.444;2023-07-16T00:42:37;13.57;;;9.90;;
65461;SDS011;53236;43.666;18.444;2023-07-16T00:45:03;14.80;;;10.77;;
65461;SDS011;53236;43.666;18.444;2023-07-16T00:47:36;14.90;;;11.80;;
65461;SDS011;53236;43.666;18.444;2023-07-16T00:50:02;14.10;;;10.90;;
65461;SDS011;53236;43.666;18.444;2023-07-16T00:52:28;15.23;;;11.37;;
65461;SDS011;53236;43.666;18.444;2023-07-16T00:54:54;16.47;;;10.47;;
65461;SDS011;53236;43.666;18.444;2023-07-16T00:57:20;16.93;;;11.93;;
65461;SDS011;53236;43.666;18.444;2023-07-16T00:59:45;14.47;;;11.07;;
65461;SDS011;53236;43.666;18.444;2023-07-16T01:02:11;16.17;;;11.13;;
65461;SDS011;53236;43.666;18.444;2023-07-16T01:04:37;16.23;;;11.00;;
65461;SDS011;53236;43.666;18.444;2023-07-16T01:07:04;16.83;;;11.17;;
65461;SDS011;53236;43.666;18.444;2023-07-16T01:09:33;17.27;;;10.47;;
65461;SDS011;53236;43.666;18.444;2023-07-16T01:12:02;13.77;;;11.70;;
65461;SDS011;53236;43.666;18.444;2023-07-16T01:14:28;13.87;;;10.70;;
65461;SDS011;53236;43.666;18.444;2023-07-16T01:16:56;17.80;;;12.10;;
65461;SDS011;53236;43.666;18.444;2023-07-16T01:19:24;15.57;;;11.33;;
65461;SDS011;53236;43.666;18.444;2023-07-16T01:30:28;13.63;;;10.67;;
65461;SDS011;53236;43.666;18.444;2023-07-16T01:32:55;13.87;;;10.03;;
65461;SDS011;53236;43.666;18.444;2023-07-16T01:35:22;16.00;;;11.03;;
65461;SDS011;53236;43.666;18.444;2023-07-16T01:37:49;14.40;;;10.73;;
65461;SDS011;53236;43.666;18.444;2023-07-16T01:40:14;14.90;;;11.27;;
65461;SDS011;53236;43.666;18.444;2023-07-16T01:42:40;17.47;;;11.17;;
65461;SDS011;53236;43.666;18.444;2023-07-16T01:45:06;14.93;;;10.83;;
65461;SDS011;53236;43.666;18.444;2023-07-16T01:50:16;14.53;;;10.77;;
65461;SDS011;53236;43.666;18.444;2023-07-16T01:52:42;16.40;;;11.17;;
65461;SDS011;53236;43.666;18.444;2023-07-16T01:55:07;16.20;;;10.47;;
65461;SDS011;53236;43.666;18.444;2023-07-16T01:57:33;17.07;;;11.00;;
65461;SDS011;53236;43.666;18.444;2023-07-16T01:59:59;16.43;;;11.30;;
65461;SDS011;53236;43.666;18.444;2023-07-16T02:02:25;15.63;;;10.70;;
65461;SDS011;53236;43.666;18.444;2023-07-16T02:04:50;12.87;;;10.20;;
65461;SDS011;53236;43.666;18.444;2023-07-16T02:07:16;19.53;;;10.50;;
65461;SDS011;53236;43.666;18.444;2023-07-16T02:09:42;15.50;;;11.03;;
65461;SDS011;53236;43.666;18.444;2023-07-16T02:12:08;14.87;;;10.00;;
65461;SDS011;53236;43.666;18.444;2023-07-16T02:14:33;14.17;;;10.73;;
65461;SDS011;53236;43.666;18.444;2023-07-16T02:16:59;13.33;;;10.20;;
65461;SDS011;53236;43.666;18.444;2023-07-16T02:19:25;15.00;;;11.57;;
65461;SDS011;53236;43.666;18.444;2023-07-16T02:21:51;14.27;;;11.00;;
65461;SDS011;53236;43.666;18.444;2023-07-16T02:24:17;15.07;;;11.70;;
65461;SDS011;53236;43.666;18.444;2023-07-16T02:26:43;12.43;;;10.50;;
65461;SDS011;53236;43.666;18.444;2023-07-16T02:29:09;14.53;;;10.30;;
65461;SDS011;53236;43.666;18.444;2023-07-16T02:31:35;14.10;;;10.90;;
65461;SDS011;53236;43.666;18.444;2023-07-16T02:34:01;13.00;;;10.67;;
65461;SDS011;53236;43.666;18.444;2023-07-16T02:36:27;14.47;;;10.50;;
65461;SDS011;53236;43.666;18.444;2023-07-16T02:38:53;15.77;;;10.80;;
65461;SDS011;53236;43.666;18.444;2023-07-16T02:41:18;15.80;;;11.60;;
65461;SDS011;53236;43.666;18.444;2023-07-16T02:43:45;14.97;;;10.90;;
65461;SDS011;53236;43.666;18.444;2023-07-16T02:46:11;17.53;;;10.67;;
65461;SDS011;53236;43.666;18.444;2023-07-16T02:48:37;15.00;;;10.27;;
65461;SDS011;53236;43.666;18.444;2023-07-16T02:51:03;13.97;;;9.53;;
65461;SDS011;53236;43.666;18.444;2023-07-16T02:53:28;15.40;;;10.83;;
65461;SDS011;53236;43.666;18.444;2023-07-16T02:55:54;13.87;;;10.30;;
65461;SDS011;53236;43.666;18.444;2023-07-16T02:58:20;13.87;;;10.83;;
65461;SDS011;53236;43.666;18.444;2023-07-16T03:00:46;13.27;;;9.73;;
65461;SDS011;53236;43.666;18.444;2023-07-16T03:03:11;15.93;;;10.63;;
65461;SDS011;53236;43.666;18.444;2023-07-16T03:05:37;16.50;;;10.80;;
65461;SDS011;53236;43.666;18.444;2023-07-16T03:08:03;14.23;;;10.30;;
65461;SDS011;53236;43.666;18.444;2023-07-16T03:10:29;14.20;;;10.23;;
65461;SDS011;53236;43.666;18.444;2023-07-16T03:12:55;14.33;;;10.80;;
65461;SDS011;53236;43.666;18.444;2023-07-16T03:15:20;13.73;;;10.30;;
65461;SDS011;53236;43.666;18.444;2023-07-16T03:17:46;14.90;;;10.97;;
65461;SDS011;53236;43.666;18.444;2023-07-16T03:20:12;15.87;;;10.60;;
65461;SDS011;53236;43.666;18.444;2023-07-16T03:22:38;12.83;;;10.03;;
65461;SDS011;53236;43.666;18.444;2023-07-16T03:25:04;13.83;;;10.23;;
65461;SDS011;53236;43.666;18.444;2023-07-16T03:27:30;12.83;;;10.03;;
65461;SDS011;53236;43.666;18.444;2023-07-16T03:29:56;14.37;;;10.43;;
65461;SDS011;53236;43.666;18.444;2023-07-16T03:32:22;13.43;;;10.47;;
65461;SDS011;53236;43.666;18.444;2023-07-16T03:34:48;15.00;;;10.93;;
65461;SDS011;53236;43.666;18.444;2023-07-16T03:37:13;15.80;;;10.73;;
65461;SDS011;53236;43.666;18.444;2023-07-16T03:39:39;15.57;;;10.83;;
65461;SDS011;53236;43.666;18.444;2023-07-16T03:42:05;12.93;;;10.23;;
65461;SDS011;53236;43.666;18.444;2023-07-16T03:44:31;14.37;;;10.20;;
65461;SDS011;53236;43.666;18.444;2023-07-16T03:46:56;13.30;;;9.90;;
65461;SDS011;53236;43.666;18.444;2023-07-16T03:49:22;14.17;;;10.17;;
65461;SDS011;53236;43.666;18.444;2023-07-16T03:51:48;19.57;;;10.27;;
65461;SDS011;53236;43.666;18.444;2023-07-16T03:54:13;14.07;;;10.27;;
65461;SDS011;53236;43.666;18.444;2023-07-16T03:56:39;14.80;;;10.03;;
65461;SDS011;53236;43.666;18.444;2023-07-16T03:59:05;11.63;;;9.50;;
65461;SDS011;53236;43.666;18.444;2023-07-16T04:01:31;13.20;;;9.70;;
65461;SDS011;53236;43.666;18.444;2023-07-16T04:03:56;12.57;;;10.30;;
65461;SDS011;53236;43.666;18.444;2023-07-16T04:06:22;13.57;;;9.77;;
65461;SDS011;53236;43.666;18.444;2023-07-16T04:08:48;13.37;;;10.07;;
65461;SDS011;53236;43.666;18.444;2023-07-16T04:11:13;13.07;;;9.37;;
65461;SDS011;53236;43.666;18.444;2023-07-16T04:13:39;13.40;;;10.30;;
65461;SDS011;53236;43.666;18.444;2023-07-16T04:16:05;13.63;;;10.13;;
65461;SDS011;53236;43.666;18.444;2023-07-16T04:18:31;14.07;;;9.90;;
65461;SDS011;53236;43.666;18.444;2023-07-16T04:20:56;12.00;;;9.53;;
65461;SDS011;53236;43.666;18.444;2023-07-16T04:23:22;13.10;;;9.30;;
65461;SDS011;53236;43.666;18.444;2023-07-16T04:25:54;13.77;;;9.40;;
65461;SDS011;53236;43.666;18.444;2023-07-16T04:28:20;11.27;;;8.10;;
65461;SDS011;53236;43.666;18.444;2023-07-16T04:30:46;11.32;;;7.57;;
65461;SDS011;53236;43.666;18.444;2023-07-16T04:33:12;10.63;;;6.50;;
65461;SDS011;53236;43.666;18.444;2023-07-16T04:35:38;8.85;;;6.20;;
65461;SDS011;53236;43.666;18.444;2023-07-16T04:38:04;8.50;;;6.10;;
65461;SDS011;53236;43.666;18.444;2023-07-16T04:40:29;8.85;;;6.00;;
65461;SDS011;53236;43.666;18.444;2023-07-16T04:42:55;7.85;;;5.57;;
65461;SDS011;53236;43.666;18.444;2023-07-16T04:45:21;10.00;;;5.15;;
65461;SDS011;53236;43.666;18.444;2023-07-16T04:47:47;12.07;;;5.72;;
65461;SDS011;53236;43.666;18.444;2023-07-16T04:50:13;7.00;;;4.88;;
65461;SDS011;53236;43.666;18.444;2023-07-16T04:52:38;8.90;;;5.38;;
65461;SDS011;53236;43.666;18.444;2023-07-16T04:55:04;6.90;;;5.20;;
65461;SDS011;53236;43.666;18.444;2023-07-16T04:57:32;6.75;;;4.63;;
65461;SDS011;53236;43.666;18.444;2023-07-16T04:59:58;8.73;;;4.50;;
65461;SDS011;53236;43.666;18.444;2023-07-16T05:02:24;6.22;;;4.80;;
65461;SDS011;53236;43.666;18.444;2023-07-16T05:04:49;8.50;;;4.90;;
65461;SDS011;53236;43.666;18.444;2023-07-16T05:07:15;6.88;;;5.32;;
65461;SDS011;53236;43.666;18.444;2023-07-16T05:09:44;6.97;;;4.60;;
65461;SDS011;53236;43.666;18.444;2023-07-16T05:12:10;11.43;;;5.05;;
65461;SDS011;53236;43.666;18.444;2023-07-16T05:14:45;8.90;;;4.97;;
65461;SDS011;53236;43.666;18.444;2023-07-16T05:17:13;5.53;;;4.80;;
65461;SDS011;53236;43.666;18.444;2023-07-16T05:19:39;9.02;;;5.03;;
65461;SDS011;53236;43.666;18.444;2023-07-16T05:22:05;7.25;;;5.05;;
65461;SDS011;53236;43.666;18.444;2023-07-16T05:24:32;7.28;;;4.65;;
65461;SDS011;53236;43.666;18.444;2023-07-16T05:26:58;6.80;;;5.10;;
65461;SDS011;53236;43.666;18.444;2023-07-16T05:29:23;7.20;;;5.18;;
65461;SDS011;53236;43.666;18.444;2023-07-16T05:31:49;6.72;;;4.90;;
65461;SDS011;53236;43.666;18.444;2023-07-16T05:34:15;6.05;;;4.65;;
65461;SDS011;53236;43.666;18.444;2023-07-16T05:36:41;6.22;;;4.57;;
65461;SDS011;53236;43.666;18.444;2023-07-16T05:39:09;6.85;;;4.68;;
65461;SDS011;53236;43.666;18.444;2023-07-16T05:41:38;5.78;;;4.78;;
65461;SDS011;53236;43.666;18.444;2023-07-16T05:44:04;5.72;;;4.05;;
65461;SDS011;53236;43.666;18.444;2023-07-16T05:46:30;5.63;;;4.80;;
65461;SDS011;53236;43.666;18.444;2023-07-16T05:48:56;5.18;;;4.68;;
65461;SDS011;53236;43.666;18.444;2023-07-16T05:51:21;7.85;;;5.35;;
65461;SDS011;53236;43.666;18.444;2023-07-16T05:53:47;5.78;;;4.00;;
65461;SDS011;53236;43.666;18.444;2023-07-16T05:56:13;6.22;;;4.40;;
65461;SDS011;53236;43.666;18.444;2023-07-16T05:58:39;7.85;;;4.47;;
65461;SDS011;53236;43.666;18.444;2023-07-16T06:01:08;7.28;;;3.95;;
65461;SDS011;53236;43.666;18.444;2023-07-16T06:03:34;6.03;;;4.10;;
65461;SDS011;53236;43.666;18.444;2023-07-16T06:05:59;6.63;;;4.32;;
65461;SDS011;53236;43.666;18.444;2023-07-16T06:08:25;7.00;;;4.40;;
65461;SDS011;53236;43.666;18.444;2023-07-16T06:10:51;7.55;;;4.22;;
65461;SDS011;53236;43.666;18.444;2023-07-16T06:13:17;8.20;;;4.53;;
65461;SDS011;53236;43.666;18.444;2023-07-16T06:15:43;6.47;;;4.38;;
65461;SDS011;53236;43.666;18.444;2023-07-16T06:18:09;5.07;;;3.65;;
65461;SDS011;53236;43.666;18.444;2023-07-16T06:20:35;7.80;;;4.25;;
65461;SDS011;53236;43.666;18.444;2023-07-16T06:23:01;6.88;;;4.28;;
65461;SDS011;53236;43.666;18.444;2023-07-16T06:25:26;5.25;;;3.58;;
65461;SDS011;53236;43.666;18.444;2023-07-16T06:27:52;7.35;;;3.88;;
65461;SDS011;53236;43.666;18.444;2023-07-16T06:30:18;5.28;;;3.40;;
65461;SDS011;53236;43.666;18.444;2023-07-16T06:32:44;4.93;;;3.30;;
65461;SDS011;53236;43.666;18.444;2023-07-16T06:35:09;4.93;;;3.63;;
65461;SDS011;53236;43.666;18.444;2023-07-16T06:37:35;4.30;;;3.58;;
65461;SDS011;53236;43.666;18.444;2023-07-16T06:40:01;5.68;;;4.05;;
65461;SDS011;53236;43.666;18.444;2023-07-16T06:42:28;5.00;;;3.15;;
65461;SDS011;53236;43.666;18.444;2023-07-16T06:44:54;6.38;;;3.60;;
65461;SDS011;53236;43.666;18.444;2023-07-16T06:47:20;5.18;;;3.88;;
65461;SDS011;53236;43.666;18.444;2023-07-16T06:49:45;5.68;;;3.38;;
65461;SDS011;53236;43.666;18.444;2023-07-16T06:52:21;5.97;;;3.80;;
65461;SDS011;53236;43.666;18.444;2023-07-16T06:54:47;5.30;;;3.40;;
65461;SDS011;53236;43.666;18.444;2023-07-16T06:57:13;5.38;;;3.28;;
65461;SDS011;53236;43.666;18.444;2023-07-16T06:59:39;4.80;;;3.67;;
65461;SDS011;53236;43.666;18.444;2023-07-16T07:02:05;5.65;;;3.60;;
65461;SDS011;53236;43.666;18.444;2023-07-16T07:04:31;7.22;;;4.07;;
65461;SDS011;53236;43.666;18.444;2023-07-16T07:06:57;4.18;;;3.38;;
65461;SDS011;53236;43.666;18.444;2023-07-16T07:09:22;5.68;;;3.60;;
65461;SDS011;53236;43.666;18.444;2023-07-16T07:11:48;10.55;;;6.57;;
65461;SDS011;53236;43.666;18.444;2023-07-16T07:14:14;7.32;;;4.50;;
65461;SDS011;53236;43.666;18.444;2023-07-16T07:16:40;10.32;;;4.55;;
65461;SDS011;53236;43.666;18.444;2023-07-16T07:19:06;7.90;;;4.47;;
65461;SDS011;53236;43.666;18.444;2023-07-16T07:21:33;6.78;;;4.13;;
65461;SDS011;53236;43.666;18.444;2023-07-16T07:23:58;7.78;;;5.35;;
65461;SDS011;53236;43.666;18.444;2023-07-16T07:26:24;7.97;;;4.88;;
65461;SDS011;53236;43.666;18.444;2023-07-16T07:28:50;12.73;;;7.15;;
65461;SDS011;53236;43.666;18.444;2023-07-16T07:31:16;7.15;;;4.60;;
65461;SDS011;53236;43.666;18.444;2023-07-16T07:33:42;8.23;;;4.45;;
65461;SDS011;53236;43.666;18.444;2023-07-16T07:36:07;6.45;;;3.70;;
65461;SDS011;53236;43.666;18.444;2023-07-16T07:38:33;12.50;;;7.68;;
65461;SDS011;53236;43.666;18.444;2023-07-16T07:40:59;5.05;;;3.65;;
65461;SDS011;53236;43.666;18.444;2023-07-16T07:43:25;6.03;;;3.28;;
65461;SDS011;53236;43.666;18.444;2023-07-16T07:45:51;14.30;;;3.60;;
65461;SDS011;53236;43.666;18.444;2023-07-16T07:48:17;9.60;;;5.28;;
65461;SDS011;53236;43.666;18.444;2023-07-16T07:50:43;5.43;;;4.05;;
65461;SDS011;53236;43.666;18.444;2023-07-16T07:53:11;4.07;;;3.55;;
65461;SDS011;53236;43.666;18.444;2023-07-16T07:55:37;9.90;;;4.60;;
65461;SDS011;53236;43.666;18.444;2023-07-16T07:58:02;5.93;;;3.67;;
65461;SDS011;53236;43.666;18.444;2023-07-16T08:00:28;7.15;;;4.47;;
65461;SDS011;53236;43.666;18.444;2023-07-16T08:02:54;7.45;;;3.30;;
65461;SDS011;53236;43.666;18.444;2023-07-16T08:05:20;17.75;;;10.82;;
65461;SDS011;53236;43.666;18.444;2023-07-16T08:07:45;5.80;;;3.70;;
65461;SDS011;53236;43.666;18.444;2023-07-16T08:10:12;7.03;;;4.25;;
65461;SDS011;53236;43.666;18.444;2023-07-16T08:12:38;7.85;;;4.75;;
65461;SDS011;53236;43.666;18.444;2023-07-16T08:15:04;12.25;;;7.50;;
65461;SDS011;53236;43.666;18.444;2023-07-16T08:17:32;6.93;;;5.40;;
65461;SDS011;53236;43.666;18.444;2023-07-16T08:19:58;8.65;;;5.30;;
65461;SDS011;53236;43.666;18.444;2023-07-16T08:22:23;5.25;;;4.25;;
65461;SDS011;53236;43.666;18.444;2023-07-16T08:24:50;7.03;;;4.40;;
65461;SDS011;53236;43.666;18.444;2023-07-16T08:27:16;10.43;;;5.60;;
65461;SDS011;53236;43.666;18.444;2023-07-16T08:29:44;8.32;;;6.00;;
65461;SDS011;53236;43.666;18.444;2023-07-16T08:32:09;8.32;;;6.28;;
65461;SDS011;53236;43.666;18.444;2023-07-16T08:34:35;9.10;;;6.63;;
65461;SDS011;53236;43.666;18.444;2023-07-16T08:37:01;9.90;;;6.28;;
65461;SDS011;53236;43.666;18.444;2023-07-16T08:39:26;12.18;;;6.53;;
65461;SDS011;53236;43.666;18.444;2023-07-16T08:41:52;9.07;;;5.93;;
65461;SDS011;53236;43.666;18.444;2023-07-16T08:44:19;10.38;;;5.82;;
65461;SDS011;53236;43.666;18.444;2023-07-16T08:46:45;10.93;;;6.07;;
65461;SDS011;53236;43.666;18.444;2023-07-16T08:49:11;8.48;;;5.78;;
65461;SDS011;53236;43.666;18.444;2023-07-16T08:51:37;10.55;;;6.05;;
65461;SDS011;53236;43.666;18.444;2023-07-16T08:54:04;8.73;;;5.70;;
65461;SDS011;53236;43.666;18.444;2023-07-16T08:56:29;12.18;;;7.28;;
65461;SDS011;53236;43.666;18.444;2023-07-16T08:58:55;13.07;;;7.07;;
65461;SDS011;53236;43.666;18.444;2023-07-16T09:01:22;9.02;;;5.90;;
65461;SDS011;53236;43.666;18.444;2023-07-16T09:03:48;12.35;;;5.82;;
65461;SDS011;53236;43.666;18.444;2023-07-16T09:06:14;9.35;;;5.85;;
65461;SDS011;53236;43.666;18.444;2023-07-16T09:08:39;12.30;;;6.47;;
65461;SDS011;53236;43.666;18.444;2023-07-16T09:11:05;11.27;;;6.18;;
65461;SDS011;53236;43.666;18.444;2023-07-16T09:13:35;10.55;;;6.40;;
65461;SDS011;53236;43.666;18.444;2023-07-16T09:16:01;9.65;;;6.50;;
65461;SDS011;53236;43.666;18.444;2023-07-16T09:18:27;8.70;;;5.10;;
65461;SDS011;53236;43.666;18.444;2023-07-16T09:20:56;17.10;;;5.60;;
65461;SDS011;53236;43.666;18.444;2023-07-16T09:23:25;10.77;;;5.97;;
65461;SDS011;53236;43.666;18.444;2023-07-16T09:25:54;11.75;;;5.97;;
65461;SDS011;53236;43.666;18.444;2023-07-16T09:28:20;7.97;;;5.43;;
65461;SDS011;53236;43.666;18.444;2023-07-16T09:30:47;16.15;;;6.40;;
65461;SDS011;53236;43.666;18.444;2023-07-16T09:33:14;10.00;;;5.47;;
65461;SDS011;53236;43.666;18.444;2023-07-16T09:35:41;12.73;;;6.30;;
65461;SDS011;53236;43.666;18.444;2023-07-16T09:38:07;10.23;;;6.22;;
65461;SDS011;53236;43.666;18.444;2023-07-16T09:40:37;10.18;;;5.72;;
65461;SDS011;53236;43.666;18.444;2023-07-16T09:43:04;10.55;;;6.03;;
65461;SDS011;53236;43.666;18.444;2023-07-16T09:45:31;7.78;;;5.47;;
65461;SDS011;53236;43.666;18.444;2023-07-16T09:47:58;10.20;;;5.63;;
65461;SDS011;53236;43.666;18.444;2023-07-16T09:50:24;11.13;;;5.68;;
65461;SDS011;53236;43.666;18.444;2023-07-16T09:52:53;11.00;;;4.97;;
65461;SDS011;53236;43.666;18.444;2023-07-16T09:55:21;10.50;;;4.82;;
65461;SDS011;53236;43.666;18.444;2023-07-16T09:57:48;8.57;;;5.28;;
65461;SDS011;53236;43.666;18.444;2023-07-16T10:00:15;9.13;;;4.40;;
65461;SDS011;53236;43.666;18.444;2023-07-16T10:02:43;8.02;;;4.72;;
65461;SDS011;53236;43.666;18.444;2023-07-16T10:05:17;6.13;;;4.32;;
65461;SDS011;53236;43.666;18.444;2023-07-16T10:07:51;5.65;;;2.83;;
65461;SDS011;53236;43.666;18.444;2023-07-16T10:10:18;5.97;;;3.83;;
65461;SDS011;53236;43.666;18.444;2023-07-16T10:12:54;5.55;;;3.30;;
65461;SDS011;53236;43.666;18.444;2023-07-16T10:15:28;8.43;;;4.05;;
65461;SDS011;53236;43.666;18.444;2023-07-16T10:17:54;6.63;;;3.22;;
65461;SDS011;53236;43.666;18.444;2023-07-16T10:20:59;6.32;;;3.40;;
65461;SDS011;53236;43.666;18.444;2023-07-16T10:23:13;8.25;;;3.38;;
65461;SDS011;53236;43.666;18.444;2023-07-16T10:25:41;6.55;;;3.35;;
65461;SDS011;53236;43.666;18.444;2023-07-16T10:28:25;6.10;;;3.88;;
65461;SDS011;53236;43.666;18.444;2023-07-16T10:30:51;7.47;;;3.22;;
65461;SDS011;53236;43.666;18.444;2023-07-16T10:33:17;6.53;;;2.70;;
65461;SDS011;53236;43.666;18.444;2023-07-16T10:35:44;5.32;;;2.00;;
65461;SDS011;53236;43.666;18.444;2023-07-16T10:38:11;4.70;;;2.95;;
65461;SDS011;53236;43.666;18.444;2023-07-16T10:40:40;5.70;;;2.40;;
65461;SDS011;53236;43.666;18.444;2023-07-16T10:43:06;6.50;;;3.33;;
65461;SDS011;53236;43.666;18.444;2023-07-16T10:45:32;7.03;;;4.18;;
65461;SDS011;53236;43.666;18.444;2023-07-16T10:47:58;5.70;;;2.78;;
65461;SDS011;53236;43.666;18.444;2023-07-16T10:50:24;5.90;;;3.10;;
65461;SDS011;53236;43.666;18.444;2023-07-16T10:52:51;6.07;;;2.88;;
65461;SDS011;53236;43.666;18.444;2023-07-16T10:55:18;9.55;;;5.22;;
65461;SDS011;53236;43.666;18.444;2023-07-16T10:57:46;8.52;;;3.33;;
65461;SDS011;53236;43.666;18.444;2023-07-16T11:00:13;6.32;;;3.22;;
65461;SDS011;53236;43.666;18.444;2023-07-16T11:02:39;4.93;;;2.85;;
65461;SDS011;53236;43.666;18.444;2023-07-16T11:05:06;6.45;;;3.53;;
65461;SDS011;53236;43.666;18.444;2023-07-16T11:07:44;5.75;;;2.92;;
65461;SDS011;53236;43.666;18.444;2023-07-16T11:10:17;4.75;;;2.60;;
65461;SDS011;53236;43.666;18.444;2023-07-16T11:12:44;4.93;;;2.45;;
65461;SDS011;53236;43.666;18.444;2023-07-16T11:15:10;5.53;;;2.55;;
65461;SDS011;53236;43.666;18.444;2023-07-16T11:17:39;5.25;;;2.65;;
65461;SDS011;53236;43.666;18.444;2023-07-16T11:20:08;5.10;;;2.72;;
65461;SDS011;53236;43.666;18.444;2023-07-16T11:22:36;4.78;;;2.78;;
65461;SDS011;53236;43.666;18.444;2023-07-16T11:25:03;5.60;;;2.55;;
65461;SDS011;53236;43.666;18.444;2023-07-16T11:27:35;4.85;;;2.83;;
65461;SDS011;53236;43.666;18.444;2023-07-16T11:30:01;3.50;;;1.85;;
65461;SDS011;53236;43.666;18.444;2023-07-16T11:34:58;3.28;;;2.10;;
65461;SDS011;53236;43.666;18.444;2023-07-16T11:37:26;3.35;;;2.00;;
65461;SDS011;53236;43.666;18.444;2023-07-16T11:40:00;3.10;;;1.70;;
65461;SDS011;53236;43.666;18.444;2023-07-16T11:42:32;4.22;;;2.30;;
65461;SDS011;53236;43.666;18.444;2023-07-16T11:44:59;4.28;;;1.98;;
65461;SDS011;53236;43.666;18.444;2023-07-16T11:47:25;4.30;;;1.75;;
65461;SDS011;53236;43.666;18.444;2023-07-16T11:49:51;2.85;;;1.67;;
65461;SDS011;53236;43.666;18.444;2023-07-16T11:52:20;3.05;;;1.77;;
65461;SDS011;53236;43.666;18.444;2023-07-16T11:54:48;3.30;;;1.65;;
65461;SDS011;53236;43.666;18.444;2023-07-16T11:57:14;4.30;;;1.70;;
65461;SDS011;53236;43.666;18.444;2023-07-16T11:59:41;5.43;;;1.92;;
65461;SDS011;53236;43.666;18.444;2023-07-16T12:02:07;4.63;;;1.40;;
65461;SDS011;53236;43.666;18.444;2023-07-16T12:04:33;3.67;;;1.27;;
65461;SDS011;53236;43.666;18.444;2023-07-16T12:06:58;3.60;;;1.80;;
65461;SDS011;53236;43.666;18.444;2023-07-16T12:09:24;2.35;;;1.40;;
65461;SDS011;53236;43.666;18.444;2023-07-16T12:11:51;3.70;;;1.42;;
65461;SDS011;53236;43.666;18.444;2023-07-16T12:14:17;2.50;;;1.23;;
65461;SDS011;53236;43.666;18.444;2023-07-16T12:16:43;2.70;;;0.95;;
65461;SDS011;53236;43.666;18.444;2023-07-16T12:19:09;2.10;;;0.95;;
65461;SDS011;53236;43.666;18.444;2023-07-16T12:21:35;3.40;;;1.20;;
65461;SDS011;53236;43.666;18.444;2023-07-16T12:24:01;2.70;;;1.30;;
65461;SDS011;53236;43.666;18.444;2023-07-16T12:26:27;1.60;;;0.90;;
65461;SDS011;53236;43.666;18.444;2023-07-16T12:28:53;3.33;;;1.20;;
65461;SDS011;53236;43.666;18.444;2023-07-16T12:31:19;2.65;;;1.40;;
65461;SDS011;53236;43.666;18.444;2023-07-16T12:33:48;2.92;;;1.40;;
65461;SDS011;53236;43.666;18.444;2023-07-16T12:36:14;3.03;;;1.33;;
65461;SDS011;53236;43.666;18.444;2023-07-16T12:38:40;3.58;;;1.45;;
65461;SDS011;53236;43.666;18.444;2023-07-16T12:41:07;3.53;;;1.60;;
65461;SDS011;53236;43.666;18.444;2023-07-16T12:43:33;2.67;;;1.70;;
65461;SDS011;53236;43.666;18.444;2023-07-16T12:46:02;3.33;;;1.73;;
65461;SDS011;53236;43.666;18.444;2023-07-16T12:48:32;6.28;;;1.30;;
65461;SDS011;53236;43.666;18.444;2023-07-16T12:50:58;2.30;;;1.30;;
65461;SDS011;53236;43.666;18.444;2023-07-16T12:53:24;2.50;;;1.30;;
65461;SDS011;53236;43.666;18.444;2023-07-16T12:55:50;2.58;;;1.40;;
65461;SDS011;53236;43.666;18.444;2023-07-16T12:58:16;3.15;;;1.50;;
65461;SDS011;53236;43.666;18.444;2023-07-16T13:00:42;3.78;;;1.60;;
65461;SDS011;53236;43.666;18.444;2023-07-16T13:03:08;5.20;;;1.70;;
65461;SDS011;53236;43.666;18.444;2023-07-16T13:05:39;3.83;;;1.67;;
65461;SDS011;53236;43.666;18.444;2023-07-16T13:08:05;4.22;;;1.55;;
65461;SDS011;53236;43.666;18.444;2023-07-16T13:10:32;2.33;;;1.40;;
65461;SDS011;53236;43.666;18.444;2023-07-16T13:12:58;3.10;;;1.70;;
65461;SDS011;53236;43.666;18.444;2023-07-16T13:15:23;2.90;;;1.70;;
65461;SDS011;53236;43.666;18.444;2023-07-16T13:17:49;4.50;;;1.73;;
65461;SDS011;53236;43.666;18.444;2023-07-16T13:20:15;3.38;;;1.60;;
65461;SDS011;53236;43.666;18.444;2023-07-16T13:22:42;3.70;;;1.80;;
65461;SDS011;53236;43.666;18.444;2023-07-16T13:25:07;3.58;;;1.92;;
65461;SDS011;53236;43.666;18.444;2023-07-16T13:27:33;3.90;;;2.13;;
65461;SDS011;53236;43.666;18.444;2023-07-16T13:29:59;3.35;;;2.00;;
65461;SDS011;53236;43.666;18.444;2023-07-16T13:32:25;3.63;;;1.75;;
65461;SDS011;53236;43.666;18.444;2023-07-16T13:34:51;2.83;;;1.67;;
65461;SDS011;53236;43.666;18.444;2023-07-16T13:37:16;4.20;;;1.80;;
65461;SDS011;53236;43.666;18.444;2023-07-16T13:39:42;3.38;;;1.73;;
65461;SDS011;53236;43.666;18.444;2023-07-16T13:42:08;3.45;;;1.90;;
65461;SDS011;53236;43.666;18.444;2023-07-16T13:44:36;3.58;;;2.10;;
65461;SDS011;53236;43.666;18.444;2023-07-16T13:47:02;4.30;;;1.85;;
65461;SDS011;53236;43.666;18.444;2023-07-16T13:49:28;3.95;;;1.75;;
65461;SDS011;53236;43.666;18.444;2023-07-16T13:51:54;3.35;;;2.15;;
65461;SDS011;53236;43.666;18.444;2023-07-16T13:54:20;4.50;;;2.00;;
65461;SDS011;53236;43.666;18.444;2023-07-16T13:56:46;4.65;;;2.30;;
65461;SDS011;53236;43.666;18.444;2023-07-16T13:59:13;4.60;;;2.20;;
65461;SDS011;53236;43.666;18.444;2023-07-16T14:01:39;4.18;;;2.15;;
65461;SDS011;53236;43.666;18.444;2023-07-16T14:04:06;4.90;;;1.85;;
65461;SDS011;53236;43.666;18.444;2023-07-16T14:06:32;3.53;;;2.47;;
65461;SDS011;53236;43.666;18.444;2023-07-16T14:08:58;4.65;;;2.40;;
65461;SDS011;53236;43.666;18.444;2023-07-16T14:11:24;5.35;;;2.10;;
65461;SDS011;53236;43.666;18.444;2023-07-16T14:13:50;3.30;;;2.13;;
65461;SDS011;53236;43.666;18.444;2023-07-16T14:16:18;5.47;;;2.30;;
65461;SDS011;53236;43.666;18.444;2023-07-16T14:18:44;5.82;;;2.20;;
65461;SDS011;53236;43.666;18.444;2023-07-16T14:21:10;3.55;;;1.77;;
65461;SDS011;53236;43.666;18.444;2023-07-16T14:23:36;4.82;;;2.55;;
65461;SDS011;53236;43.666;18.444;2023-07-16T14:26:01;4.13;;;2.25;;
65461;SDS011;53236;43.666;18.444;2023-07-16T14:28:28;4.30;;;2.10;;
65461;SDS011;53236;43.666;18.444;2023-07-16T14:30:54;3.30;;;2.13;;
65461;SDS011;53236;43.666;18.444;2023-07-16T14:33:20;7.35;;;2.53;;
65461;SDS011;53236;43.666;18.444;2023-07-16T14:35:46;4.15;;;2.50;;